Time;durP1;ratioP1;P1;durP2;ratioP2;P2;SDS_P1;SDS_P2;PMS_P1;PMS_P2;Temp;Humidity;BMP_temperature;BMP_pressure;BME280_temperature;BME280_humidity;BME280_pressure;Samples;Min_cycle;Max_cycle;Signal;HPM_P1;HPM_P2
2022/09/18 00:00:47;;;;;;;0.30;0.30;;;7.60;99.90;;;;;;5055841;28;20039;-35
2022/09/18 00:03:14;;;;;;;0.60;0.60;;;7.60;99.90;;;;;;5061580;28;20025;-31
2022/09/18 00:05:40;;;;;;;0.60;0.60;;;7.60;99.90;;;;;;5054646;28;20037;-32
2022/09/18 00:08:07;;;;;;;2.00;0.88;;;7.70;99.90;;;;;;5059715;28;20044;-31
2022/09/18 00:10:38;;;;;;;1.13;0.85;;;7.70;99.90;;;;;;5053802;28;20024;-33
2022/09/18 00:13:04;;;;;;;0.68;0.68;;;7.70;99.90;;;;;;5046701;28;20037;-31
2022/09/18 00:15:29;;;;;;;0.70;0.70;;;7.70;99.90;;;;;;5050561;28;20025;-32
2022/09/18 00:17:55;;;;;;;0.70;0.70;;;7.80;99.90;;;;;;5048731;28;20029;-32
2022/09/18 00:20:21;;;;;;;1.00;0.80;;;7.80;99.90;;;;;;5056230;28;20052;-30
2022/09/18 00:22:46;;;;;;;2.53;0.80;;;7.80;99.90;;;;;;5059419;28;20416;-32
2022/09/18 00:25:12;;;;;;;1.00;0.98;;;7.70;99.90;;;;;;5052612;28;20070;-31
2022/09/18 00:27:38;;;;;;;0.70;0.70;;;7.80;99.90;;;;;;5057280;28;20055;-30
2022/09/18 00:30:04;;;;;;;0.90;0.85;;;7.80;99.90;;;;;;5054282;28;20477;-31
2022/09/18 00:32:29;;;;;;;0.70;0.70;;;7.70;99.90;;;;;;5054767;28;20545;-31
2022/09/18 00:34:55;;;;;;;0.75;0.75;;;7.70;99.90;;;;;;5055026;28;20040;-32
2022/09/18 00:37:20;;;;;;;0.93;0.93;;;7.70;99.90;;;;;;5052683;28;22220;-31
2022/09/18 00:39:46;;;;;;;0.80;0.70;;;7.60;99.90;;;;;;5052324;28;20024;-30
2022/09/18 00:42:12;;;;;;;1.25;0.90;;;7.70;99.90;;;;;;5055863;28;20028;-31
2022/09/18 00:44:41;;;;;;;2.22;0.70;;;7.70;99.90;;;;;;5047856;28;20024;-31
2022/09/18 00:47:23;;;;;;;0.68;0.68;;;7.70;99.90;;;;;;5056126;28;20025;-32
2022/09/18 00:49:55;;;;;;;0.90;0.90;;;7.70;99.90;;;;;;5056708;28;20496;-32
2022/09/18 00:52:24;;;;;;;0.85;0.75;;;7.70;99.90;;;;;;5061046;28;20024;-32
2022/09/18 00:54:54;;;;;;;1.00;0.90;;;7.70;99.90;;;;;;5060039;28;20030;-33
2022/09/18 00:57:26;;;;;;;1.88;0.85;;;7.70;99.90;;;;;;5054544;28;20064;-31
2022/09/18 00:59:53;;;;;;;0.85;0.73;;;7.70;99.90;;;;;;5056700;28;20051;-33
2022/09/18 01:02:19;;;;;;;1.30;0.93;;;7.80;99.90;;;;;;5029687;28;20042;-33
2022/09/18 01:04:46;;;;;;;0.95;0.75;;;7.80;99.90;;;;;;5047198;28;20032;-31
2022/09/18 01:07:36;;;;;;;2.85;1.30;;;7.80;99.90;;;;;;5048860;28;20098;-34
2022/09/18 01:10:05;;;;;;;1.55;1.20;;;7.80;99.90;;;;;;5052059;28;20437;-32
2022/09/18 01:12:42;;;;;;;;;;;7.80;99.90;;;;;;5049602;28;20036;-33
2022/09/18 01:15:20;;;;;;;2.05;0.90;;;7.80;99.90;;;;;;5057081;28;19914;-31
2022/09/18 01:17:56;;;;;;;3.92;1.10;;;7.80;99.90;;;;;;5050974;28;20036;-31
2022/09/18 01:20:53;;;;;;;1.88;1.13;;;7.80;99.90;;;;;;5039027;28;20028;-32
2022/09/18 01:23:37;;;;;;;2.42;1.00;;;7.80;99.90;;;;;;5057639;28;20731;-29
2022/09/18 01:26:33;;;;;;;1.48;1.05;;;7.80;99.90;;;;;;5040450;28;20032;-30
2022/09/18 01:29:26;;;;;;;1.92;1.02;;;7.80;99.90;;;;;;5055914;28;20373;-30
2022/09/18 01:32:06;;;;;;;1.17;1.15;;;7.80;99.90;;;;;;5056419;28;20406;-30
2022/09/18 01:34:56;;;;;;;3.25;1.25;;;7.80;99.90;;;;;;5040199;28;20063;-32
2022/09/18 01:37:43;;;;;;;1.10;1.00;;;7.80;99.90;;;;;;5056573;28;20028;-32
2022/09/18 01:40:19;;;;;;;3.73;1.00;;;7.80;99.90;;;;;;5056164;28;20021;-32
2022/09/18 01:42:48;;;;;;;2.08;1.17;;;7.90;99.90;;;;;;5039170;28;20419;-31
2022/09/18 01:45:39;;;;;;;2.20;1.00;;;7.90;99.90;;;;;;5055446;28;20033;-32
2022/09/18 01:48:07;;;;;;;1.48;1.00;;;7.90;99.90;;;;;;5055426;28;20028;-32
2022/09/18 01:50:38;;;;;;;1.13;1.00;;;7.90;99.90;;;;;;5056341;28;20115;-31
2022/09/18 01:53:11;;;;;;;1.60;0.77;;;7.90;99.90;;;;;;5057782;28;20040;-31
2022/09/18 01:55:39;;;;;;;1.02;0.90;;;7.90;99.90;;;;;;5056112;28;20020;-31
2022/09/18 01:58:10;;;;;;;;;;;8.00;99.90;;;;;;5050452;28;20168;-31
2022/09/18 02:00:43;;;;;;;1.95;1.10;;;8.00;99.90;;;;;;5059216;28;20325;-32
2022/09/18 02:03:29;;;;;;;2.00;1.17;;;8.00;99.90;;;;;;5057893;28;20465;-32
2022/09/18 02:06:03;;;;;;;1.23;0.65;;;8.00;99.90;;;;;;5057633;28;20033;-30
2022/09/18 02:09:02;;;;;;;1.50;1.40;;;8.00;99.90;;;;;;5037305;28;20029;-30
2022/09/18 02:11:29;;;;;;;1.58;1.35;;;8.00;99.90;;;;;;4982392;28;20040;-30
2022/09/18 02:14:26;;;;;;;3.80;1.20;;;8.10;99.90;;;;;;5058928;28;20141;-31
2022/09/18 02:16:58;;;;;;;2.08;0.88;;;8.10;99.90;;;;;;5037914;28;20070;-31
2022/09/18 02:19:46;;;;;;;1.05;1.00;;;8.10;99.90;;;;;;5040352;28;20114;-32
2022/09/18 02:22:16;;;;;;;0.88;0.88;;;8.10;99.90;;;;;;5064809;28;20035;-31
2022/09/18 02:24:45;;;;;;;1.42;1.33;;;8.10;99.90;;;;;;5063714;28;20036;-31
2022/09/18 02:27:14;;;;;;;0.80;0.80;;;8.10;99.90;;;;;;5057812;28;20103;-30
2022/09/18 02:29:42;;;;;;;0.70;0.70;;;8.10;99.90;;;;;;5043921;28;20059;-30
2022/09/18 02:32:08;;;;;;;3.35;1.33;;;8.10;99.90;;;;;;5067884;28;20033;-30
2022/09/18 02:34:34;;;;;;;1.85;1.10;;;8.10;99.90;;;;;;5060299;28;20588;-30
2022/09/18 02:37:13;;;;;;;1.30;0.93;;;8.10;99.90;;;;;;5063506;28;20020;-30
2022/09/18 02:39:53;;;;;;;0.77;0.77;;;8.20;99.90;;;;;;5060026;28;20063;-31
2022/09/18 02:42:30;;;;;;;0.98;0.98;;;8.20;99.90;;;;;;5064491;28;20025;-31
2022/09/18 02:45:26;;;;;;;1.58;1.40;;;8.20;99.90;;;;;;5059252;28;20020;-31
2022/09/18 02:48:15;;;;;;;1.20;1.10;;;8.10;99.90;;;;;;5062586;28;20150;-31
2022/09/18 02:51:06;;;;;;;1.52;0.90;;;8.10;99.90;;;;;;5061458;28;20037;-31
2022/09/18 02:54:02;;;;;;;2.70;1.02;;;8.10;99.90;;;;;;5063866;28;20466;-31
2022/09/18 02:56:39;;;;;;;1.13;0.93;;;8.10;99.90;;;;;;5052519;28;20112;-32
2022/09/18 02:59:28;;;;;;;0.80;0.80;;;8.10;99.90;;;;;;5056491;28;20555;-31
2022/09/18 03:01:56;;;;;;;2.50;1.10;;;8.10;99.90;;;;;;5057017;28;20502;-32
2022/09/18 03:04:23;;;;;;;2.23;1.20;;;8.10;99.90;;;;;;5056690;28;20382;-30
2022/09/18 03:06:49;;;;;;;1.70;1.20;;;8.10;99.90;;;;;;5064821;28;20575;-31
2022/09/18 03:09:15;;;;;;;1.17;1.08;;;8.00;99.90;;;;;;5053846;28;20389;-30
2022/09/18 03:11:41;;;;;;;2.45;1.30;;;8.10;99.90;;;;;;5044144;28;20130;-31
2022/09/18 03:14:07;;;;;;;4.93;1.83;;;8.00;99.90;;;;;;5057770;28;20505;-32
2022/09/18 03:16:37;;;;;;;1.00;1.00;;;8.00;99.90;;;;;;5046808;28;20063;-30
2022/09/18 03:19:02;;;;;;;2.13;1.20;;;8.00;99.90;;;;;;5042968;28;20021;-31
2022/09/18 03:21:28;;;;;;;1.25;1.10;;;8.00;99.90;;;;;;5066350;28;20481;-31
2022/09/18 03:23:54;;;;;;;2.05;1.15;;;8.00;99.90;;;;;;5065322;28;20110;-30
2022/09/18 03:26:20;;;;;;;1.15;0.70;;;8.10;99.90;;;;;;5064295;28;20025;-31
2022/09/18 03:28:46;;;;;;;1.58;1.48;;;8.10;99.90;;;;;;5067167;28;20035;-31
2022/09/18 03:31:12;;;;;;;0.90;0.90;;;8.10;99.90;;;;;;5061681;28;20127;-31
2022/09/18 03:33:38;;;;;;;1.60;1.30;;;8.10;99.90;;;;;;5068975;28;20147;-31
2022/09/18 03:36:04;;;;;;;2.65;0.90;;;8.20;99.90;;;;;;5067478;28;20654;-33
2022/09/18 03:38:31;;;;;;;2.45;1.02;;;8.20;99.90;;;;;;5070028;28;20054;-30
2022/09/18 03:40:56;;;;;;;2.75;1.00;;;8.20;99.90;;;;;;5057186;28;20425;-31
2022/09/18 03:43:22;;;;;;;0.90;0.90;;;8.20;99.90;;;;;;5065655;28;20028;-30
2022/09/18 03:45:48;;;;;;;2.70;1.13;;;8.20;99.90;;;;;;5068245;28;20107;-31
2022/09/18 03:48:14;;;;;;;2.67;1.10;;;8.20;99.90;;;;;;5072158;28;20087;-31
2022/09/18 03:50:39;;;;;;;1.10;1.08;;;8.30;99.90;;;;;;5065182;28;20116;-31
2022/09/18 03:53:07;;;;;;;2.22;0.80;;;8.20;99.90;;;;;;5068039;28;20029;-31
2022/09/18 03:55:33;;;;;;;5.93;1.40;;;8.20;99.90;;;;;;5067223;28;20033;-31
2022/09/18 03:57:59;;;;;;;0.90;0.90;;;8.30;99.90;;;;;;5060670;28;20059;-31
2022/09/18 04:00:24;;;;;;;3.33;1.35;;;8.30;99.90;;;;;;5068730;28;20413;-33
2022/09/18 04:02:50;;;;;;;1.00;0.98;;;8.30;99.90;;;;;;5066100;28;20100;-33
2022/09/18 04:05:16;;;;;;;2.45;1.10;;;8.30;99.90;;;;;;5068768;28;20537;-31
2022/09/18 04:07:41;;;;;;;1.10;1.10;;;8.30;99.90;;;;;;5067713;28;20025;-31
2022/09/18 04:10:07;;;;;;;3.20;1.20;;;8.30;99.90;;;;;;5058492;28;20025;-31
2022/09/18 04:12:33;;;;;;;1.92;1.00;;;8.30;99.90;;;;;;5057681;28;20056;-31
2022/09/18 04:14:59;;;;;;;2.80;1.00;;;8.30;99.90;;;;;;5068424;28;20036;-33
2022/09/18 04:17:25;;;;;;;1.27;1.08;;;8.30;99.90;;;;;;5063759;28;20382;-32
2022/09/18 04:19:51;;;;;;;1.92;1.10;;;8.30;99.90;;;;;;5060708;28;20394;-34
2022/09/18 04:22:17;;;;;;;0.90;0.90;;;8.30;99.90;;;;;;5065972;28;20055;-32
2022/09/18 04:24:44;;;;;;;1.98;1.30;;;8.30;99.90;;;;;;5062595;28;20481;-31
2022/09/18 04:27:10;;;;;;;0.80;0.80;;;8.30;99.90;;;;;;5066739;28;20036;-32
2022/09/18 04:29:35;;;;;;;3.85;1.08;;;8.30;99.90;;;;;;5065209;28;20036;-30
2022/09/18 04:32:01;;;;;;;3.10;1.40;;;8.40;99.90;;;;;;5064410;28;20033;-30
2022/09/18 04:34:26;;;;;;;1.15;0.98;;;8.40;99.90;;;;;;5066048;28;20076;-33
2022/09/18 04:36:52;;;;;;;1.23;1.10;;;8.40;99.90;;;;;;5048738;28;20485;-31
2022/09/18 04:39:18;;;;;;;1.55;1.08;;;8.40;99.90;;;;;;5067199;28;20112;-31
2022/09/18 04:41:44;;;;;;;1.10;1.10;;;8.40;99.90;;;;;;5062682;28;20021;-32
2022/09/18 04:44:11;;;;;;;2.15;1.10;;;8.40;99.90;;;;;;5062419;28;20111;-30
2022/09/18 04:46:36;;;;;;;1.95;1.10;;;8.50;99.90;;;;;;5062109;28;20041;-31
2022/09/18 04:49:02;;;;;;;2.72;1.08;;;8.50;99.90;;;;;;5058409;28;20032;-31
2022/09/18 04:51:28;;;;;;;2.33;1.27;;;8.50;99.90;;;;;;5067417;28;20557;-31
2022/09/18 04:53:53;;;;;;;1.00;1.00;;;8.50;99.90;;;;;;5064836;28;20028;-30
2022/09/18 04:56:19;;;;;;;1.20;1.10;;;8.50;99.90;;;;;;5068078;28;20651;-30
2022/09/18 04:58:44;;;;;;;1.00;1.00;;;8.50;99.90;;;;;;5064087;28;20028;-30
2022/09/18 05:01:10;;;;;;;4.10;1.08;;;8.50;99.90;;;;;;5059101;28;20052;-30
2022/09/18 05:03:36;;;;;;;0.93;0.85;;;8.50;99.90;;;;;;5060601;28;20021;-31
2022/09/18 05:06:01;;;;;;;1.35;0.88;;;8.50;99.90;;;;;;5063163;28;20560;-31
2022/09/18 05:08:28;;;;;;;1.05;0.98;;;8.50;99.90;;;;;;5067326;28;20067;-33
2022/09/18 05:10:54;;;;;;;2.30;1.05;;;8.50;99.90;;;;;;5067552;28;20082;-30
2022/09/18 05:13:19;;;;;;;1.25;1.15;;;8.50;99.90;;;;;;5066886;28;20061;-30
2022/09/18 05:15:45;;;;;;;1.25;1.20;;;8.60;99.90;;;;;;5061289;28;20056;-30
2022/09/18 05:18:11;;;;;;;1.60;1.45;;;8.50;99.90;;;;;;5062618;28;20079;-30
2022/09/18 05:20:37;;;;;;;4.00;1.17;;;8.50;99.90;;;;;;5066782;28;20028;-31
2022/09/18 05:23:03;;;;;;;1.20;1.10;;;8.50;99.90;;;;;;5065777;28;20067;-32
2022/09/18 05:25:29;;;;;;;1.23;0.95;;;8.60;99.90;;;;;;5069032;28;20064;-33
2022/09/18 05:27:59;;;;;;;1.25;1.00;;;8.50;99.90;;;;;;5064414;28;20482;-31
2022/09/18 05:30:26;;;;;;;1.27;1.23;;;8.50;99.90;;;;;;5066404;28;20033;-30
2022/09/18 05:32:59;;;;;;;3.50;1.30;;;8.50;99.90;;;;;;5065406;28;20035;-31
2022/09/18 05:35:27;;;;;;;1.33;0.98;;;8.50;99.90;;;;;;5063440;28;20112;-30
2022/09/18 05:37:53;;;;;;;2.05;1.95;;;8.50;99.90;;;;;;5046872;28;20393;-33
2022/09/18 05:40:22;;;;;;;1.30;1.00;;;8.50;99.90;;;;;;5065395;28;20567;-31
2022/09/18 05:42:49;;;;;;;1.65;1.13;;;8.50;99.90;;;;;;5064297;28;20020;-31
2022/09/18 05:45:15;;;;;;;0.95;0.77;;;8.50;99.90;;;;;;5045044;28;20040;-32
2022/09/18 05:47:42;;;;;;;3.70;0.90;;;8.50;99.90;;;;;;5065135;28;20538;-33
2022/09/18 05:50:08;;;;;;;2.80;1.17;;;8.40;99.90;;;;;;5063920;28;20040;-31
2022/09/18 05:52:34;;;;;;;3.85;1.60;;;8.50;99.90;;;;;;5063810;28;20083;-31
2022/09/18 05:55:00;;;;;;;2.33;1.20;;;8.50;99.90;;;;;;5064769;28;20608;-31
2022/09/18 05:57:25;;;;;;;1.58;1.20;;;8.50;99.90;;;;;;5061016;28;20106;-31
2022/09/18 05:59:51;;;;;;;2.58;1.13;;;8.50;99.90;;;;;;5064477;28;20028;-31
2022/09/18 06:02:17;;;;;;;1.70;1.60;;;8.50;99.90;;;;;;5044288;28;20040;-32
2022/09/18 06:04:42;;;;;;;1.88;1.08;;;8.50;99.90;;;;;;5062775;28;20032;-32
2022/09/18 06:07:08;;;;;;;2.58;1.30;;;8.40;99.90;;;;;;5063654;28;20038;-32
2022/09/18 06:09:33;;;;;;;0.88;0.85;;;8.40;99.90;;;;;;5064926;28;20408;-30
2022/09/18 06:11:59;;;;;;;0.90;0.90;;;8.40;99.90;;;;;;5062615;28;20380;-31
2022/09/18 06:14:25;;;;;;;2.20;1.20;;;8.40;99.90;;;;;;5062414;28;20040;-32
2022/09/18 06:16:50;;;;;;;2.97;1.10;;;8.40;99.90;;;;;;5062984;28;20032;-31
2022/09/18 06:19:16;;;;;;;1.92;1.30;;;8.40;99.90;;;;;;5056573;28;20043;-31
2022/09/18 06:21:41;;;;;;;2.00;1.40;;;8.50;99.90;;;;;;5064530;28;20417;-31
2022/09/18 06:24:08;;;;;;;2.35;1.30;;;8.50;99.90;;;;;;5063814;28;20024;-31
2022/09/18 06:26:34;;;;;;;1.40;1.30;;;8.50;99.90;;;;;;5061974;28;20032;-31
2022/09/18 06:29:00;;;;;;;3.00;1.35;;;8.50;99.90;;;;;;5062399;28;20036;-32
2022/09/18 06:31:25;;;;;;;3.47;1.67;;;8.50;99.90;;;;;;5045448;28;20425;-32
2022/09/18 06:33:51;;;;;;;1.05;1.00;;;8.50;99.90;;;;;;5062695;28;20504;-31
2022/09/18 06:36:17;;;;;;;1.85;1.17;;;8.50;99.90;;;;;;5044129;28;20037;-31
2022/09/18 06:38:43;;;;;;;1.20;1.20;;;8.50;99.90;;;;;;5063509;28;20032;-32
2022/09/18 06:41:08;;;;;;;1.50;1.40;;;8.50;99.90;;;;;;5065893;28;20147;-30
2022/09/18 06:43:35;;;;;;;2.38;2.13;;;8.50;99.90;;;;;;5060115;28;20654;-31
2022/09/18 06:46:00;;;;;;;1.75;1.52;;;8.50;99.90;;;;;;5055949;28;20041;-30
2022/09/18 06:53:37;;;;;;;1.45;1.35;;;8.60;99.90;;;;;;4988127;28;20046;-37
2022/09/18 06:56:02;;;;;;;4.40;1.58;;;8.60;99.90;;;;;;4990400;28;20534;-34
2022/09/18 06:58:28;;;;;;;1.77;1.40;;;8.60;99.90;;;;;;4988315;28;20395;-39
2022/09/18 07:00:54;;;;;;;1.20;1.20;;;8.70;99.90;;;;;;4989440;28;20184;-39
2022/09/18 07:03:19;;;;;;;2.40;1.38;;;8.70;99.90;;;;;;4990585;28;20076;-39
2022/09/18 07:05:45;;;;;;;2.58;1.25;;;8.70;99.90;;;;;;4992750;28;20038;-35
2022/09/18 07:08:11;;;;;;;1.33;1.25;;;8.60;99.90;;;;;;4985050;28;20030;-39
2022/09/18 07:10:39;;;;;;;2.83;1.33;;;8.70;99.90;;;;;;5000376;28;20152;-36
2022/09/18 07:13:05;;;;;;;1.33;1.23;;;8.70;99.90;;;;;;4998711;28;20019;-38
2022/09/18 07:15:31;;;;;;;1.83;1.45;;;8.70;99.90;;;;;;4996853;28;20037;-39
2022/09/18 07:17:58;;;;;;;2.10;1.17;;;8.70;99.90;;;;;;5003316;28;20034;-40
2022/09/18 07:20:24;;;;;;;1.27;0.80;;;8.70;99.90;;;;;;4991295;28;20026;-37
2022/09/18 07:22:58;;;;;;;2.60;1.60;;;8.70;99.90;;;;;;4987516;28;20709;-38
2022/09/18 07:25:25;;;;;;;0.75;0.75;;;8.70;99.90;;;;;;4988624;28;20024;-39
2022/09/18 07:27:51;;;;;;;2.08;1.48;;;8.70;99.90;;;;;;4991614;28;20573;-37
2022/09/18 07:30:17;;;;;;;5.82;1.50;;;8.80;99.90;;;;;;4995212;28;20034;-37
2022/09/18 07:32:43;;;;;;;2.53;1.50;;;8.80;99.90;;;;;;4991426;28;20062;-39
2022/09/18 07:35:10;;;;;;;3.30;1.30;;;8.80;99.90;;;;;;4991760;28;20061;-37
2022/09/18 07:37:36;;;;;;;2.33;2.13;;;8.80;99.90;;;;;;4999059;28;20057;-37
2022/09/18 07:40:02;;;;;;;2.50;1.33;;;8.80;99.90;;;;;;4992645;28;20527;-39
2022/09/18 07:42:28;;;;;;;1.92;1.30;;;8.90;99.90;;;;;;4993734;28;20050;-38
2022/09/18 07:44:53;;;;;;;5.72;2.28;;;8.90;99.90;;;;;;4987268;28;20068;-34
2022/09/18 07:47:19;;;;;;;3.42;1.30;;;8.90;99.90;;;;;;4992487;28;20034;-37
2022/09/18 07:49:45;;;;;;;3.47;1.20;;;9.00;99.90;;;;;;4997053;28;20520;-38
2022/09/18 07:52:10;;;;;;;1.83;1.70;;;8.90;99.90;;;;;;4998303;28;20046;-38
2022/09/18 07:54:36;;;;;;;0.90;0.90;;;8.90;99.90;;;;;;4998550;28;20109;-39
2022/09/18 07:57:02;;;;;;;1.98;1.13;;;9.00;99.90;;;;;;4994447;28;20023;-39
2022/09/18 07:59:27;;;;;;;1.58;1.25;;;9.00;99.90;;;;;;4994600;28;20030;-38
2022/09/18 08:01:54;;;;;;;2.50;1.20;;;9.00;99.90;;;;;;4995753;28;20043;-39
2022/09/18 08:04:21;;;;;;;1.05;1.05;;;9.00;99.90;;;;;;4997430;28;20073;-32
2022/09/18 08:06:51;;;;;;;3.58;1.17;;;9.10;99.90;;;;;;4992399;28;20034;-34
2022/09/18 08:09:16;;;;;;;0.90;0.90;;;9.10;99.90;;;;;;4995283;28;20109;-37
2022/09/18 08:11:43;;;;;;;4.53;1.25;;;9.20;99.90;;;;;;4987994;28;20623;-36
2022/09/18 08:14:09;;;;;;;2.58;1.58;;;9.30;99.90;;;;;;4999997;28;20140;-38
2022/09/18 08:16:35;;;;;;;3.38;1.45;;;9.30;99.90;;;;;;4987490;28;20647;-39
2022/09/18 08:19:00;;;;;;;1.98;1.20;;;9.30;99.90;;;;;;4994996;28;20029;-36
2022/09/18 08:21:28;;;;;;;1.33;1.08;;;9.30;99.90;;;;;;4993700;28;20498;-33
2022/09/18 08:23:53;;;;;;;0.93;0.93;;;9.30;99.90;;;;;;4989980;28;20026;-34
2022/09/18 08:26:19;;;;;;;1.33;0.88;;;9.30;99.90;;;;;;4992624;28;20025;-34
2022/09/18 08:28:46;;;;;;;3.38;1.20;;;9.30;99.90;;;;;;4994698;28;20502;-35
2022/09/18 08:31:12;;;;;;;1.98;1.08;;;9.30;99.90;;;;;;4996838;28;20030;-35
2022/09/18 08:33:38;;;;;;;0.95;0.95;;;9.30;99.90;;;;;;4990805;28;20065;-39
2022/09/18 08:36:04;;;;;;;1.27;1.10;;;9.40;99.90;;;;;;4994166;28;20492;-36
2022/09/18 08:38:29;;;;;;;1.20;1.10;;;9.40;99.90;;;;;;4989066;28;20735;-32
2022/09/18 08:41:03;;;;;;;2.90;1.23;;;9.40;99.90;;;;;;4987625;28;20149;-39
2022/09/18 08:44:07;;;;;;;1.30;0.95;;;9.40;99.90;;;;;;4976559;28;20473;-35
2022/09/18 08:46:38;;;;;;;1.65;1.05;;;9.50;99.90;;;;;;4949026;28;20483;-39
2022/09/18 08:49:36;;;;;;;1.33;1.20;;;9.50;99.90;;;;;;4949747;28;20449;-33
2022/09/18 08:52:02;;;;;;;2.22;1.23;;;9.50;99.90;;;;;;4976063;28;20424;-35
2022/09/18 08:54:41;;;;;;;2.17;1.10;;;9.60;99.90;;;;;;4991715;28;20041;-39
2022/09/18 08:57:19;;;;;;;0.80;0.80;;;9.60;99.90;;;;;;4990882;28;20045;-39
2022/09/18 08:59:56;;;;;;;1.00;1.00;;;9.80;99.90;;;;;;4990377;28;20495;-35
2022/09/18 09:02:40;;;;;;;2.72;1.08;;;9.90;99.90;;;;;;4992330;28;20154;-40
2022/09/18 09:05:10;;;;;;;0.77;0.77;;;10.00;99.90;;;;;;4996980;28;20380;-36
2022/09/18 09:07:42;;;;;;;1.77;1.00;;;10.10;99.90;;;;;;4990755;28;20105;-39
2022/09/18 09:10:35;;;;;;;0.80;0.80;;;10.10;99.90;;;;;;4991177;28;20482;-39
2022/09/18 09:13:09;;;;;;;1.20;0.95;;;10.00;99.90;;;;;;4992484;28;20042;-40
2022/09/18 09:15:47;;;;;;;0.90;0.90;;;10.00;99.90;;;;;;4991418;28;20042;-39
2022/09/18 09:18:21;;;;;;;1.63;1.10;;;9.90;99.90;;;;;;4989944;28;20502;-37
2022/09/18 09:20:55;;;;;;;2.75;1.20;;;10.00;99.90;;;;;;4989963;28;20323;-31
2022/09/18 09:23:30;;;;;;;1.10;1.00;;;10.00;99.90;;;;;;4983786;28;20040;-38
2022/09/18 09:26:17;;;;;;;0.70;0.70;;;10.10;99.90;;;;;;4986727;28;20058;-39
2022/09/18 09:29:11;;;;;;;4.05;1.05;;;10.10;99.90;;;;;;4992841;28;20543;-38
2022/09/18 09:31:42;;;;;;;1.00;0.90;;;10.20;99.90;;;;;;4992726;28;20034;-34
2022/09/18 09:34:17;;;;;;;0.50;0.50;;;10.20;99.90;;;;;;4991989;28;20025;-37
2022/09/18 09:36:47;;;;;;;0.90;0.90;;;10.20;99.90;;;;;;4992724;28;20064;-39
2022/09/18 09:39:25;;;;;;;0.95;0.70;;;10.30;99.90;;;;;;4990575;28;20029;-36
2022/09/18 09:42:04;;;;;;;1.23;1.10;;;10.40;99.90;;;;;;4989070;28;20022;-38
2022/09/18 09:44:55;;;;;;;1.90;1.02;;;10.40;99.90;;;;;;4991704;28;20038;-39
2022/09/18 09:47:49;;;;;;;1.10;0.80;;;10.50;99.90;;;;;;4993014;28;21038;-38
2022/09/18 09:50:33;;;;;;;1.85;1.10;;;10.50;99.90;;;;;;4988389;28;20034;-37
2022/09/18 09:53:03;;;;;;;1.65;0.70;;;10.60;99.90;;;;;;4998294;28;20739;-39
2022/09/18 09:55:39;;;;;;;0.98;0.98;;;10.60;99.90;;;;;;4992018;28;20542;-38
2022/09/18 09:58:23;;;;;;;3.95;0.90;;;10.60;99.90;;;;;;4969304;28;20034;-34
2022/09/18 10:00:58;;;;;;;4.68;0.82;;;10.50;99.90;;;;;;4987388;28;20042;-39
2022/09/18 10:03:56;;;;;;;2.75;1.00;;;10.60;99.90;;;;;;4991728;28;20542;-35
2022/09/18 10:06:50;;;;;;;2.38;1.00;;;10.60;99.90;;;;;;4995611;28;20113;-39
2022/09/18 10:09:29;;;;;;;3.63;1.70;;;10.60;99.90;;;;;;4988685;28;20041;-38
2022/09/18 10:12:13;;;;;;;;;;;10.60;99.90;;;;;;4975628;28;20026;-38
2022/09/18 10:14:42;;;;;;;1.95;1.27;;;10.50;99.90;;;;;;4975273;28;20378;-36
2022/09/18 10:17:10;;;;;;;0.57;0.57;;;10.50;99.90;;;;;;4989408;28;20096;-37
2022/09/18 10:19:39;;;;;;;1.55;1.20;;;10.50;99.90;;;;;;4991763;28;20506;-32
2022/09/18 10:22:06;;;;;;;4.47;1.35;;;10.50;99.90;;;;;;4991718;28;20134;-37
2022/09/18 10:24:52;;;;;;;0.93;0.70;;;10.50;99.90;;;;;;4988678;28;20038;-39
2022/09/18 10:27:18;;;;;;;0.60;0.60;;;10.50;99.90;;;;;;4990264;28;20031;-40
2022/09/18 10:29:44;;;;;;;1.05;0.93;;;10.50;99.90;;;;;;4988520;28;20022;-37
2022/09/18 10:32:11;;;;;;;0.90;0.90;;;10.50;99.90;;;;;;4989895;28;20042;-39
2022/09/18 10:34:46;;;;;;;2.58;1.00;;;10.50;99.90;;;;;;4990482;28;20037;-38
2022/09/18 10:37:38;;;;;;;0.85;0.85;;;10.50;99.90;;;;;;4987654;28;20033;-39
2022/09/18 10:40:07;;;;;;;0.75;0.75;;;10.40;99.90;;;;;;4997796;28;20490;-37
2022/09/18 10:42:35;;;;;;;0.57;0.57;;;10.50;99.90;;;;;;4990095;28;20057;-37
2022/09/18 10:45:05;;;;;;;1.75;1.00;;;10.50;99.90;;;;;;4985163;28;20054;-35
2022/09/18 10:47:35;;;;;;;2.22;0.93;;;10.50;99.90;;;;;;4992764;28;20042;-38
2022/09/18 10:50:10;;;;;;;0.55;0.55;;;10.50;99.90;;;;;;4992142;28;20050;-39
2022/09/18 10:52:48;;;;;;;0.82;0.80;;;10.60;99.90;;;;;;4985471;28;20426;-37
2022/09/18 10:55:19;;;;;;;1.17;0.75;;;10.60;99.90;;;;;;4986536;28;20030;-33
2022/09/18 10:57:45;;;;;;;1.20;0.80;;;10.70;99.90;;;;;;4992325;28;20042;-38
2022/09/18 11:00:11;;;;;;;1.25;1.15;;;10.70;99.90;;;;;;4991973;28;20057;-37
2022/09/18 11:02:40;;;;;;;0.85;0.80;;;10.70;99.90;;;;;;4990862;28;20080;-39
2022/09/18 11:05:16;;;;;;;1.63;0.70;;;10.70;99.90;;;;;;4987419;28;20093;-31
2022/09/18 11:08:05;;;;;;;1.33;1.23;;;10.70;99.90;;;;;;4986851;28;20109;-34
2022/09/18 11:10:32;;;;;;;1.08;0.40;;;10.70;99.90;;;;;;4989365;28;20294;-35
2022/09/18 11:13:00;;;;;;;2.08;0.80;;;10.80;99.90;;;;;;4993982;28;20064;-39
2022/09/18 11:15:33;;;;;;;0.60;0.60;;;10.80;99.90;;;;;;4984645;28;20041;-32
2022/09/18 11:18:01;;;;;;;0.65;0.65;;;10.90;99.90;;;;;;4987896;28;20038;-39
2022/09/18 11:20:41;;;;;;;;;;;10.90;99.90;;;;;;4988399;28;20026;-39
2022/09/18 11:23:36;;;;;;;0.80;0.80;;;11.00;99.90;;;;;;4992281;28;20397;-35
2022/09/18 11:26:18;;;;;;;0.52;0.52;;;11.20;99.90;;;;;;4971734;28;20029;-32
2022/09/18 11:29:03;;;;;;;1.77;0.80;;;11.30;99.90;;;;;;4986640;28;20040;-39
2022/09/18 11:31:44;;;;;;;0.68;0.68;;;11.40;99.90;;;;;;4987663;28;20108;-38
2022/09/18 11:34:22;;;;;;;0.80;0.80;;;11.50;99.90;;;;;;4988707;28;20030;-33
2022/09/18 11:36:50;;;;;;;1.15;0.50;;;11.50;99.90;;;;;;4990355;28;20384;-38
2022/09/18 11:39:25;;;;;;;0.75;0.50;;;11.60;99.90;;;;;;4987915;28;20680;-36
2022/09/18 11:41:52;;;;;;;1.13;0.50;;;11.60;99.90;;;;;;4988677;28;20041;-38
2022/09/18 11:44:31;;;;;;;0.80;0.77;;;11.60;99.90;;;;;;4988076;28;20022;-36
2022/09/18 11:47:16;;;;;;;0.70;0.70;;;11.70;99.90;;;;;;4987936;28;20030;-38
2022/09/18 11:49:54;;;;;;;0.50;0.50;;;11.70;99.90;;;;;;4990349;28;20026;-38
2022/09/18 11:52:32;;;;;;;1.13;1.05;;;11.70;99.90;;;;;;4988350;28;20042;-38
2022/09/18 11:55:08;;;;;;;1.73;0.70;;;11.70;99.90;;;;;;4991326;28;20475;-39
2022/09/18 11:57:41;;;;;;;0.60;0.60;;;11.80;99.90;;;;;;4993706;28;20034;-39
2022/09/18 12:00:19;;;;;;;0.75;0.75;;;11.80;99.90;;;;;;4994541;28;20072;-39
2022/09/18 12:03:03;;;;;;;;;;;11.80;99.90;;;;;;4994177;28;20034;-37
2022/09/18 12:05:43;;;;;;;1.58;0.80;;;11.80;99.90;;;;;;4988180;28;19913;-38
2022/09/18 12:08:14;;;;;;;0.50;0.50;;;11.90;99.90;;;;;;4993766;28;20045;-37
2022/09/18 12:10:43;;;;;;;1.23;1.13;;;11.90;99.90;;;;;;4997835;28;20065;-33
2022/09/18 12:13:24;;;;;;;0.70;0.70;;;12.00;99.90;;;;;;4990268;28;20395;-33
2022/09/18 12:16:14;;;;;;;2.78;0.80;;;11.90;99.90;;;;;;4990565;28;20039;-33
2022/09/18 12:18:48;;;;;;;1.00;0.82;;;12.00;99.90;;;;;;4992102;28;20061;-38
2022/09/18 12:21:18;;;;;;;0.90;0.77;;;12.00;99.90;;;;;;4991547;28;20482;-38
2022/09/18 12:23:44;;;;;;;1.70;0.85;;;12.00;99.90;;;;;;4996287;28;20041;-34
2022/09/18 12:26:41;;;;;;;0.52;0.52;;;12.00;99.90;;;;;;4991487;28;20034;-38
2022/09/18 12:29:35;;;;;;;0.85;0.60;;;12.00;98.50;;;;;;4994641;28;20061;-37
2022/09/18 12:32:34;;;;;;;6.13;0.95;;;12.00;99.90;;;;;;4992020;28;20682;-34
2022/09/18 12:35:24;;;;;;;0.65;0.65;;;12.00;99.70;;;;;;4995240;28;20042;-38
2022/09/18 12:38:08;;;;;;;2.80;0.80;;;12.00;99.90;;;;;;4998272;28;20477;-38
2022/09/18 12:40:51;;;;;;;3.13;0.80;;;12.00;99.90;;;;;;4999553;28;20033;-38
2022/09/18 12:43:35;;;;;;;1.38;0.80;;;12.10;99.90;;;;;;4992301;28;20023;-37
2022/09/18 12:46:22;;;;;;;1.77;0.80;;;12.20;99.90;;;;;;4993632;28;20054;-38
2022/09/18 12:49:06;;;;;;;0.55;0.55;;;12.30;99.90;;;;;;4999483;28;20042;-35
2022/09/18 12:51:38;;;;;;;0.80;0.68;;;12.40;99.90;;;;;;4995155;28;20022;-36
2022/09/18 12:54:03;;;;;;;0.85;0.85;;;12.40;99.90;;;;;;4993388;28;20125;-39
2022/09/18 12:56:44;;;;;;;0.70;0.70;;;12.50;99.90;;;;;;4990784;28;20478;-36
2022/09/18 12:59:28;;;;;;;0.52;0.52;;;12.60;99.90;;;;;;4997266;28;20025;-38
2022/09/18 13:02:01;;;;;;;1.70;0.63;;;12.60;99.90;;;;;;4988252;28;20122;-38
2022/09/18 13:04:37;;;;;;;2.70;0.93;;;12.70;99.90;;;;;;4993828;28;20502;-39
2022/09/18 13:07:42;;;;;;;0.98;0.60;;;12.70;99.90;;;;;;4991886;28;20030;-36
2022/09/18 13:10:55;;;;;;;4.10;0.85;;;12.60;99.90;;;;;;4959080;28;20399;-39
2022/09/18 13:13:32;;;;;;;2.88;0.93;;;12.60;99.90;;;;;;4937706;28;20077;-36
2022/09/18 13:16:08;;;;;;;3.20;0.90;;;12.60;99.70;;;;;;4990611;28;20057;-38
2022/09/18 13:18:40;;;;;;;0.73;0.73;;;12.60;99.90;;;;;;4990468;28;20040;-39
2022/09/18 13:21:14;;;;;;;0.60;0.60;;;12.60;98.50;;;;;;4987994;28;20018;-32
2022/09/18 13:23:41;;;;;;;1.02;0.60;;;12.60;99.20;;;;;;4990699;28;20029;-35
2022/09/18 13:26:11;;;;;;;2.72;0.88;;;12.60;99.60;;;;;;4990543;28;20045;-33